sensor_id;sensor_type;location;lat;lon;timestamp;P1;durP1;ratioP1;P2;durP2;ratioP2
41141;SDS011;63666;52.284;20.890;2023-08-24T00:01:45;5.70;;;3.30;;
41141;SDS011;63666;52.284;20.890;2023-08-24T00:04:20;5.00;;;3.40;;
41141;SDS011;63666;52.284;20.890;2023-08-24T00:07:01;5.30;;;3.30;;
41141;SDS011;63666;52.284;20.890;2023-08-24T00:09:43;5.50;;;3.50;;
41141;SDS011;63666;52.284;20.890;2023-08-24T00:12:24;5.10;;;3.50;;
41141;SDS011;63666;52.284;20.890;2023-08-24T00:15:08;6.10;;;3.80;;
41141;SDS011;63666;52.284;20.890;2023-08-24T00:17:49;4.80;;;3.50;;
41141;SDS011;63666;52.284;20.890;2023-08-24T00:20:26;5.40;;;3.50;;
41141;SDS011;63666;52.284;20.890;2023-08-24T00:23:06;6.20;;;3.70;;
41141;SDS011;63666;52.284;20.890;2023-08-24T00:25:43;6.30;;;3.80;;
41141;SDS011;63666;52.284;20.890;2023-08-24T00:28:23;5.60;;;3.80;;
41141;SDS011;63666;52.284;20.890;2023-08-24T00:31:03;5.50;;;3.60;;
41141;SDS011;63666;52.284;20.890;2023-08-24T00:33:41;5.10;;;3.60;;
41141;SDS011;63666;52.284;20.890;2023-08-24T00:36:23;5.70;;;3.80;;
41141;SDS011;63666;52.284;20.890;2023-08-24T00:39:04;5.80;;;3.70;;
41141;SDS011;63666;52.284;20.890;2023-08-24T00:41:39;5.60;;;3.80;;
41141;SDS011;63666;52.284;20.890;2023-08-24T00:44:17;5.40;;;3.80;;
41141;SDS011;63666;52.284;20.890;2023-08-24T00:46:56;5.30;;;3.80;;
41141;SDS011;63666;52.284;20.890;2023-08-24T00:49:37;6.30;;;4.00;;
41141;SDS011;63666;52.284;20.890;2023-08-24T00:52:17;5.70;;;3.80;;
41141;SDS011;63666;52.284;20.890;2023-08-24T00:55:01;5.70;;;4.00;;
41141;SDS011;63666;52.284;20.890;2023-08-24T00:57:45;5.20;;;3.70;;
41141;SDS011;63666;52.284;20.890;2023-08-24T01:00:30;5.30;;;3.70;;
41141;SDS011;63666;52.284;20.890;2023-08-24T01:03:12;5.70;;;3.90;;
41141;SDS011;63666;52.284;20.890;2023-08-24T01:05:54;6.20;;;3.90;;
41141;SDS011;63666;52.284;20.890;2023-08-24T01:08:34;5.60;;;3.90;;
41141;SDS011;63666;52.284;20.890;2023-08-24T01:11:17;5.30;;;4.00;;
41141;SDS011;63666;52.284;20.890;2023-08-24T01:14:11;5.80;;;3.90;;
41141;SDS011;63666;52.284;20.890;2023-08-24T01:16:59;5.30;;;3.80;;
41141;SDS011;63666;52.284;20.890;2023-08-24T01:19:42;6.30;;;4.00;;
41141;SDS011;63666;52.284;20.890;2023-08-24T01:22:34;5.60;;;3.80;;
41141;SDS011;63666;52.284;20.890;2023-08-24T01:25:20;5.10;;;3.70;;
41141;SDS011;63666;52.284;20.890;2023-08-24T01:28:15;5.90;;;4.20;;
41141;SDS011;63666;52.284;20.890;2023-08-24T01:30:51;5.20;;;4.00;;
41141;SDS011;63666;52.284;20.890;2023-08-24T01:33:36;6.20;;;4.00;;
41141;SDS011;63666;52.284;20.890;2023-08-24T01:36:16;5.40;;;3.90;;
41141;SDS011;63666;52.284;20.890;2023-08-24T01:39:05;6.50;;;3.80;;
41141;SDS011;63666;52.284;20.890;2023-08-24T01:41:55;5.50;;;3.90;;
41141;SDS011;63666;52.284;20.890;2023-08-24T01:44:40;5.90;;;4.10;;
41141;SDS011;63666;52.284;20.890;2023-08-24T01:50:01;5.40;;;4.00;;
41141;SDS011;63666;52.284;20.890;2023-08-24T01:52:46;6.40;;;4.20;;
41141;SDS011;63666;52.284;20.890;2023-08-24T01:55:22;5.50;;;4.20;;
41141;SDS011;63666;52.284;20.890;2023-08-24T01:58:00;5.40;;;4.10;;
41141;SDS011;63666;52.284;20.890;2023-08-24T02:00:43;5.90;;;4.00;;
41141;SDS011;63666;52.284;20.890;2023-08-24T02:03:28;5.90;;;4.00;;
41141;SDS011;63666;52.284;20.890;2023-08-24T02:06:07;5.10;;;4.00;;
41141;SDS011;63666;52.284;20.890;2023-08-24T02:08:44;5.70;;;4.10;;
41141;SDS011;63666;52.284;20.890;2023-08-24T02:11:24;5.40;;;4.00;;
41141;SDS011;63666;52.284;20.890;2023-08-24T02:14:00;6.00;;;4.20;;
41141;SDS011;63666;52.284;20.890;2023-08-24T02:16:58;6.20;;;4.30;;
41141;SDS011;63666;52.284;20.890;2023-08-24T02:19:37;5.20;;;3.90;;
41141;SDS011;63666;52.284;20.890;2023-08-24T02:22:23;5.90;;;4.00;;
41141;SDS011;63666;52.284;20.890;2023-08-24T02:25:05;5.40;;;3.90;;
41141;SDS011;63666;52.284;20.890;2023-08-24T02:27:48;5.70;;;4.10;;
41141;SDS011;63666;52.284;20.890;2023-08-24T02:30:29;5.20;;;4.00;;
41141;SDS011;63666;52.284;20.890;2023-08-24T02:33:08;5.50;;;4.30;;
41141;SDS011;63666;52.284;20.890;2023-08-24T02:35:48;5.10;;;3.90;;
41141;SDS011;63666;52.284;20.890;2023-08-24T02:38:36;6.10;;;4.00;;
41141;SDS011;63666;52.284;20.890;2023-08-24T02:41:24;6.50;;;4.40;;
41141;SDS011;63666;52.284;20.890;2023-08-24T02:44:03;5.40;;;4.10;;
41141;SDS011;63666;52.284;20.890;2023-08-24T02:46:45;5.90;;;3.90;;
41141;SDS011;63666;52.284;20.890;2023-08-24T02:49:26;5.20;;;3.90;;
41141;SDS011;63666;52.284;20.890;2023-08-24T02:52:11;6.40;;;4.10;;
41141;SDS011;63666;52.284;20.890;2023-08-24T02:55:00;6.10;;;4.20;;
41141;SDS011;63666;52.284;20.890;2023-08-24T02:57:37;5.50;;;3.90;;
41141;SDS011;63666;52.284;20.890;2023-08-24T03:00:16;5.50;;;3.80;;
41141;SDS011;63666;52.284;20.890;2023-08-24T03:02:56;6.10;;;4.20;;
41141;SDS011;63666;52.284;20.890;2023-08-24T03:05:39;5.30;;;3.70;;
41141;SDS011;63666;52.284;20.890;2023-08-24T03:08:17;5.60;;;3.90;;
41141;SDS011;63666;52.284;20.890;2023-08-24T03:10:53;5.60;;;3.70;;
41141;SDS011;63666;52.284;20.890;2023-08-24T03:13:29;5.90;;;3.80;;
41141;SDS011;63666;52.284;20.890;2023-08-24T03:16:12;5.70;;;3.90;;
41141;SDS011;63666;52.284;20.890;2023-08-24T03:18:52;5.20;;;3.70;;
41141;SDS011;63666;52.284;20.890;2023-08-24T03:21:31;5.80;;;3.70;;
41141;SDS011;63666;52.284;20.890;2023-08-24T03:24:08;6.10;;;3.80;;
41141;SDS011;63666;52.284;20.890;2023-08-24T03:26:47;5.30;;;3.60;;
41141;SDS011;63666;52.284;20.890;2023-08-24T03:29:24;5.80;;;3.60;;
41141;SDS011;63666;52.284;20.890;2023-08-24T03:31:58;6.20;;;3.80;;
41141;SDS011;63666;52.284;20.890;2023-08-24T03:34:39;5.10;;;3.40;;
41141;SDS011;63666;52.284;20.890;2023-08-24T03:37:28;5.30;;;3.70;;
41141;SDS011;63666;52.284;20.890;2023-08-24T03:40:15;5.40;;;3.40;;
41141;SDS011;63666;52.284;20.890;2023-08-24T03:42:55;5.30;;;3.30;;
41141;SDS011;63666;52.284;20.890;2023-08-24T03:45:32;5.60;;;3.40;;
41141;SDS011;63666;52.284;20.890;2023-08-24T03:48:14;5.40;;;3.50;;
41141;SDS011;63666;52.284;20.890;2023-08-24T03:50:58;5.40;;;3.30;;
41141;SDS011;63666;52.284;20.890;2023-08-24T03:53:35;5.30;;;3.50;;
41141;SDS011;63666;52.284;20.890;2023-08-24T03:56:14;6.70;;;3.60;;
41141;SDS011;63666;52.284;20.890;2023-08-24T03:58:59;5.70;;;3.20;;
41141;SDS011;63666;52.284;20.890;2023-08-24T04:01:39;5.50;;;3.30;;
41141;SDS011;63666;52.284;20.890;2023-08-24T04:04:24;6.10;;;3.40;;
41141;SDS011;63666;52.284;20.890;2023-08-24T04:07:02;5.50;;;3.50;;
41141;SDS011;63666;52.284;20.890;2023-08-24T04:09:45;5.00;;;3.20;;
41141;SDS011;63666;52.284;20.890;2023-08-24T04:12:22;5.00;;;2.90;;
41141;SDS011;63666;52.284;20.890;2023-08-24T04:15:04;5.10;;;3.60;;
41141;SDS011;63666;52.284;20.890;2023-08-24T04:17:53;5.50;;;3.40;;
41141;SDS011;63666;52.284;20.890;2023-08-24T04:20:33;5.30;;;3.70;;
41141;SDS011;63666;52.284;20.890;2023-08-24T04:23:23;5.60;;;3.80;;
41141;SDS011;63666;52.284;20.890;2023-08-24T04:26:03;5.60;;;3.80;;
41141;SDS011;63666;52.284;20.890;2023-08-24T04:28:42;5.20;;;3.50;;
41141;SDS011;63666;52.284;20.890;2023-08-24T04:31:22;5.00;;;3.30;;
41141;SDS011;63666;52.284;20.890;2023-08-24T04:34:06;5.00;;;3.40;;
41141;SDS011;63666;52.284;20.890;2023-08-24T04:36:45;5.40;;;3.40;;
41141;SDS011;63666;52.284;20.890;2023-08-24T04:39:24;6.40;;;3.70;;
41141;SDS011;63666;52.284;20.890;2023-08-24T04:42:05;5.10;;;3.50;;
41141;SDS011;63666;52.284;20.890;2023-08-24T04:44:44;5.50;;;3.60;;
41141;SDS011;63666;52.284;20.890;2023-08-24T04:47:26;5.00;;;3.20;;
41141;SDS011;63666;52.284;20.890;2023-08-24T04:50:09;5.50;;;3.30;;
41141;SDS011;63666;52.284;20.890;2023-08-24T04:52:53;5.10;;;3.40;;
41141;SDS011;63666;52.284;20.890;2023-08-24T04:55:33;5.10;;;3.30;;
41141;SDS011;63666;52.284;20.890;2023-08-24T04:58:11;5.20;;;3.30;;
41141;SDS011;63666;52.284;20.890;2023-08-24T05:00:53;4.70;;;3.30;;
41141;SDS011;63666;52.284;20.890;2023-08-24T05:03:35;4.90;;;3.20;;
41141;SDS011;63666;52.284;20.890;2023-08-24T05:06:15;5.20;;;3.40;;
41141;SDS011;63666;52.284;20.890;2023-08-24T05:08:55;4.70;;;3.30;;
41141;SDS011;63666;52.284;20.890;2023-08-24T05:11:37;4.70;;;3.10;;
41141;SDS011;63666;52.284;20.890;2023-08-24T05:14:16;5.10;;;3.20;;
41141;SDS011;63666;52.284;20.890;2023-08-24T05:16:54;5.30;;;3.20;;
41141;SDS011;63666;52.284;20.890;2023-08-24T05:19:37;6.20;;;3.30;;
41141;SDS011;63666;52.284;20.890;2023-08-24T05:22:25;5.40;;;3.40;;
41141;SDS011;63666;52.284;20.890;2023-08-24T05:25:12;6.30;;;3.50;;
41141;SDS011;63666;52.284;20.890;2023-08-24T05:27:49;5.40;;;3.20;;
41141;SDS011;63666;52.284;20.890;2023-08-24T05:30:29;5.00;;;3.30;;
41141;SDS011;63666;52.284;20.890;2023-08-24T05:33:10;5.60;;;3.10;;
41141;SDS011;63666;52.284;20.890;2023-08-24T05:35:48;5.00;;;3.20;;
41141;SDS011;63666;52.284;20.890;2023-08-24T05:38:23;5.90;;;3.40;;
41141;SDS011;63666;52.284;20.890;2023-08-24T05:41:05;5.70;;;3.30;;
41141;SDS011;63666;52.284;20.890;2023-08-24T05:43:43;6.10;;;3.50;;
41141;SDS011;63666;52.284;20.890;2023-08-24T05:46:26;5.30;;;3.40;;
41141;SDS011;63666;52.284;20.890;2023-08-24T05:49:02;7.30;;;3.50;;
41141;SDS011;63666;52.284;20.890;2023-08-24T05:51:50;6.50;;;3.60;;
41141;SDS011;63666;52.284;20.890;2023-08-24T05:54:28;6.30;;;3.30;;
41141;SDS011;63666;52.284;20.890;2023-08-24T05:57:05;6.10;;;3.40;;
41141;SDS011;63666;52.284;20.890;2023-08-24T05:59:44;5.30;;;3.40;;
41141;SDS011;63666;52.284;20.890;2023-08-24T06:02:21;6.20;;;3.60;;
41141;SDS011;63666;52.284;20.890;2023-08-24T06:04:58;5.30;;;3.40;;
41141;SDS011;63666;52.284;20.890;2023-08-24T06:07:35;5.80;;;3.50;;
41141;SDS011;63666;52.284;20.890;2023-08-24T06:10:11;5.70;;;3.40;;
41141;SDS011;63666;52.284;20.890;2023-08-24T06:12:44;5.70;;;3.60;;
41141;SDS011;63666;52.284;20.890;2023-08-24T06:15:18;5.40;;;3.30;;
41141;SDS011;63666;52.284;20.890;2023-08-24T06:17:57;5.60;;;3.60;;
41141;SDS011;63666;52.284;20.890;2023-08-24T06:20:38;7.30;;;3.50;;
41141;SDS011;63666;52.284;20.890;2023-08-24T06:23:18;6.90;;;3.30;;
41141;SDS011;63666;52.284;20.890;2023-08-24T06:25:59;6.20;;;3.60;;
41141;SDS011;63666;52.284;20.890;2023-08-24T06:28:38;6.30;;;3.60;;
41141;SDS011;63666;52.284;20.890;2023-08-24T06:31:15;6.50;;;3.70;;
41141;SDS011;63666;52.284;20.890;2023-08-24T06:33:51;5.80;;;3.40;;
41141;SDS011;63666;52.284;20.890;2023-08-24T06:36:29;7.70;;;3.70;;
41141;SDS011;63666;52.284;20.890;2023-08-24T06:39:06;6.70;;;3.60;;
41141;SDS011;63666;52.284;20.890;2023-08-24T06:41:46;6.50;;;3.80;;
41141;SDS011;63666;52.284;20.890;2023-08-24T06:44:22;8.40;;;4.70;;
41141;SDS011;63666;52.284;20.890;2023-08-24T06:47:01;6.70;;;3.80;;
41141;SDS011;63666;52.284;20.890;2023-08-24T06:49:40;7.10;;;3.80;;
41141;SDS011;63666;52.284;20.890;2023-08-24T06:52:17;6.10;;;3.50;;
41141;SDS011;63666;52.284;20.890;2023-08-24T06:54:54;7.20;;;3.60;;
41141;SDS011;63666;52.284;20.890;2023-08-24T06:57:30;6.50;;;3.50;;
41141;SDS011;63666;52.284;20.890;2023-08-24T07:00:08;6.40;;;3.40;;
41141;SDS011;63666;52.284;20.890;2023-08-24T07:02:47;5.50;;;3.00;;
41141;SDS011;63666;52.284;20.890;2023-08-24T07:05:22;6.00;;;3.50;;
41141;SDS011;63666;52.284;20.890;2023-08-24T07:07:59;5.60;;;3.30;;
41141;SDS011;63666;52.284;20.890;2023-08-24T07:10:37;6.30;;;3.30;;
41141;SDS011;63666;52.284;20.890;2023-08-24T07:13:10;5.40;;;3.20;;
